sensor_id;sensor_type;location;lat;lon;timestamp;P1;durP1;ratioP1;P2;durP2;ratioP2
65172;SDS011;69059;52.218;5.172;2023-07-09T00:01:10;8.27;;;6.07;;
65172;SDS011;69059;52.218;5.172;2023-07-09T00:03:41;11.02;;;6.78;;
65172;SDS011;69059;52.218;5.172;2023-07-09T00:06:09;9.40;;;6.57;;
65172;SDS011;69059;52.218;5.172;2023-07-09T00:08:38;11.40;;;6.50;;
65172;SDS011;69059;52.218;5.172;2023-07-09T00:11:10;10.90;;;7.22;;
65172;SDS011;69059;52.218;5.172;2023-07-09T00:13:38;9.57;;;6.38;;
65172;SDS011;69059;52.218;5.172;2023-07-09T00:16:09;10.55;;;6.97;;
65172;SDS011;69059;52.218;5.172;2023-07-09T00:18:39;7.20;;;5.85;;
65172;SDS011;69059;52.218;5.172;2023-07-09T00:21:07;9.40;;;6.40;;
65172;SDS011;69059;52.218;5.172;2023-07-09T00:23:35;8.35;;;6.88;;
65172;SDS011;69059;52.218;5.172;2023-07-09T00:26:08;9.52;;;6.55;;
65172;SDS011;69059;52.218;5.172;2023-07-09T00:28:37;10.73;;;6.75;;
65172;SDS011;69059;52.218;5.172;2023-07-09T00:31:06;9.25;;;6.57;;
65172;SDS011;69059;52.218;5.172;2023-07-09T00:33:36;8.77;;;6.13;;
65172;SDS011;69059;52.218;5.172;2023-07-09T00:36:07;9.13;;;6.90;;
65172;SDS011;69059;52.218;5.172;2023-07-09T00:38:41;12.20;;;6.60;;
65172;SDS011;69059;52.218;5.172;2023-07-09T00:41:17;8.55;;;6.30;;
65172;SDS011;69059;52.218;5.172;2023-07-09T00:43:47;9.52;;;6.20;;
65172;SDS011;69059;52.218;5.172;2023-07-09T00:47:06;9.50;;;6.40;;
65172;SDS011;69059;52.218;5.172;2023-07-09T00:49:28;7.60;;;6.43;;
65172;SDS011;69059;52.218;5.172;2023-07-09T00:51:58;10.13;;;6.68;;
65172;SDS011;69059;52.218;5.172;2023-07-09T00:54:30;9.38;;;6.50;;
65172;SDS011;69059;52.218;5.172;2023-07-09T00:57:05;9.85;;;6.55;;
65172;SDS011;69059;52.218;5.172;2023-07-09T00:59:35;10.43;;;6.38;;
65172;SDS011;69059;52.218;5.172;2023-07-09T01:02:04;8.30;;;5.78;;
65172;SDS011;69059;52.218;5.172;2023-07-09T01:04:34;8.57;;;5.90;;
65172;SDS011;69059;52.218;5.172;2023-07-09T01:09:30;8.70;;;6.13;;
65172;SDS011;69059;52.218;5.172;2023-07-09T01:12:02;8.45;;;5.80;;
65172;SDS011;69059;52.218;5.172;2023-07-09T01:14:34;7.82;;;6.38;;
65172;SDS011;69059;52.218;5.172;2023-07-09T01:17:04;10.32;;;6.13;;
65172;SDS011;69059;52.218;5.172;2023-07-09T01:19:36;7.63;;;5.38;;
65172;SDS011;69059;52.218;5.172;2023-07-09T01:22:11;8.88;;;5.97;;
65172;SDS011;69059;52.218;5.172;2023-07-09T01:24:48;8.57;;;5.80;;
65172;SDS011;69059;52.218;5.172;2023-07-09T01:27:19;8.52;;;5.55;;
65172;SDS011;69059;52.218;5.172;2023-07-09T01:29:49;9.68;;;5.70;;
65172;SDS011;69059;52.218;5.172;2023-07-09T01:32:17;9.77;;;6.00;;
65172;SDS011;69059;52.218;5.172;2023-07-09T01:34:49;8.57;;;5.75;;
65172;SDS011;69059;52.218;5.172;2023-07-09T01:37:24;8.07;;;5.45;;
65172;SDS011;69059;52.218;5.172;2023-07-09T01:39:54;8.10;;;5.50;;
65172;SDS011;69059;52.218;5.172;2023-07-09T01:42:23;7.78;;;5.80;;
65172;SDS011;69059;52.218;5.172;2023-07-09T01:44:53;7.15;;;5.68;;
65172;SDS011;69059;52.218;5.172;2023-07-09T01:47:23;10.10;;;6.22;;
65172;SDS011;69059;52.218;5.172;2023-07-09T01:49:51;9.23;;;6.22;;
65172;SDS011;69059;52.218;5.172;2023-07-09T01:52:25;8.93;;;6.28;;
65172;SDS011;69059;52.218;5.172;2023-07-09T01:54:56;8.88;;;6.30;;
65172;SDS011;69059;52.218;5.172;2023-07-09T01:57:25;9.10;;;5.95;;
65172;SDS011;69059;52.218;5.172;2023-07-09T02:00:00;7.70;;;5.93;;
65172;SDS011;69059;52.218;5.172;2023-07-09T02:02:32;9.18;;;6.25;;
65172;SDS011;69059;52.218;5.172;2023-07-09T02:05:02;9.60;;;6.50;;
65172;SDS011;69059;52.218;5.172;2023-07-09T02:07:31;8.50;;;6.18;;
65172;SDS011;69059;52.218;5.172;2023-07-09T02:09:59;9.18;;;6.40;;
65172;SDS011;69059;52.218;5.172;2023-07-09T02:12:27;9.73;;;6.20;;
65172;SDS011;69059;52.218;5.172;2023-07-09T02:14:55;9.98;;;6.30;;
65172;SDS011;69059;52.218;5.172;2023-07-09T02:17:23;8.70;;;6.10;;
65172;SDS011;69059;52.218;5.172;2023-07-09T02:22:19;9.65;;;6.25;;
65172;SDS011;69059;52.218;5.172;2023-07-09T02:24:48;9.73;;;6.35;;
65172;SDS011;69059;52.218;5.172;2023-07-09T02:27:17;7.43;;;6.15;;
65172;SDS011;69059;52.218;5.172;2023-07-09T02:29:45;7.40;;;5.93;;
65172;SDS011;69059;52.218;5.172;2023-07-09T02:32:13;7.28;;;5.97;;
65172;SDS011;69059;52.218;5.172;2023-07-09T02:34:45;8.30;;;5.80;;
65172;SDS011;69059;52.218;5.172;2023-07-09T02:37:15;8.02;;;6.15;;
65172;SDS011;69059;52.218;5.172;2023-07-09T02:39:45;10.50;;;7.15;;
65172;SDS011;69059;52.218;5.172;2023-07-09T02:42:15;9.63;;;6.18;;
65172;SDS011;69059;52.218;5.172;2023-07-09T02:44:44;9.18;;;6.35;;
65172;SDS011;69059;52.218;5.172;2023-07-09T02:47:12;9.38;;;6.43;;
65172;SDS011;69059;52.218;5.172;2023-07-09T02:49:41;8.48;;;6.00;;
65172;SDS011;69059;52.218;5.172;2023-07-09T02:52:09;10.57;;;6.05;;
65172;SDS011;69059;52.218;5.172;2023-07-09T02:54:37;10.23;;;6.43;;
65172;SDS011;69059;52.218;5.172;2023-07-09T02:57:05;9.63;;;6.72;;
65172;SDS011;69059;52.218;5.172;2023-07-09T02:59:35;9.65;;;6.10;;
65172;SDS011;69059;52.218;5.172;2023-07-09T03:02:03;10.48;;;6.05;;
65172;SDS011;69059;52.218;5.172;2023-07-09T03:04:32;8.48;;;6.40;;
65172;SDS011;69059;52.218;5.172;2023-07-09T03:07:00;8.27;;;6.70;;
65172;SDS011;69059;52.218;5.172;2023-07-09T03:09:28;9.80;;;6.68;;
65172;SDS011;69059;52.218;5.172;2023-07-09T03:14:24;11.27;;;6.93;;
65172;SDS011;69059;52.218;5.172;2023-07-09T03:19:22;8.45;;;6.28;;
65172;SDS011;69059;52.218;5.172;2023-07-09T03:21:50;8.45;;;6.40;;
65172;SDS011;69059;52.218;5.172;2023-07-09T03:24:18;9.02;;;6.85;;
65172;SDS011;69059;52.218;5.172;2023-07-09T03:26:46;11.00;;;6.28;;
65172;SDS011;69059;52.218;5.172;2023-07-09T03:29:14;11.55;;;7.00;;
65172;SDS011;69059;52.218;5.172;2023-07-09T03:31:43;9.43;;;6.90;;
65172;SDS011;69059;52.218;5.172;2023-07-09T03:34:12;8.10;;;6.25;;
65172;SDS011;69059;52.218;5.172;2023-07-09T03:36:40;8.20;;;6.20;;
65172;SDS011;69059;52.218;5.172;2023-07-09T03:39:09;9.13;;;7.18;;
65172;SDS011;69059;52.218;5.172;2023-07-09T03:41:36;8.57;;;6.10;;
65172;SDS011;69059;52.218;5.172;2023-07-09T03:44:04;10.00;;;6.35;;
65172;SDS011;69059;52.218;5.172;2023-07-09T03:46:32;8.93;;;6.45;;
65172;SDS011;69059;52.218;5.172;2023-07-09T03:49:00;8.45;;;6.60;;
65172;SDS011;69059;52.218;5.172;2023-07-09T03:51:29;8.15;;;6.50;;
65172;SDS011;69059;52.218;5.172;2023-07-09T03:53:57;10.65;;;6.95;;
65172;SDS011;69059;52.218;5.172;2023-07-09T03:56:25;8.38;;;6.72;;
65172;SDS011;69059;52.218;5.172;2023-07-09T03:58:53;11.68;;;6.75;;
65172;SDS011;69059;52.218;5.172;2023-07-09T04:01:21;11.00;;;6.85;;
65172;SDS011;69059;52.218;5.172;2023-07-09T04:03:49;8.43;;;6.13;;
65172;SDS011;69059;52.218;5.172;2023-07-09T04:06:17;10.95;;;7.63;;
65172;SDS011;69059;52.218;5.172;2023-07-09T04:08:46;9.02;;;6.50;;
65172;SDS011;69059;52.218;5.172;2023-07-09T04:11:14;9.80;;;7.18;;
65172;SDS011;69059;52.218;5.172;2023-07-09T04:13:42;10.65;;;6.85;;
65172;SDS011;69059;52.218;5.172;2023-07-09T04:16:10;9.70;;;7.07;;
65172;SDS011;69059;52.218;5.172;2023-07-09T04:18:38;8.88;;;6.68;;
65172;SDS011;69059;52.218;5.172;2023-07-09T04:21:06;10.73;;;6.57;;
65172;SDS011;69059;52.218;5.172;2023-07-09T04:23:34;8.88;;;6.75;;
65172;SDS011;69059;52.218;5.172;2023-07-09T04:26:03;8.70;;;6.68;;
65172;SDS011;69059;52.218;5.172;2023-07-09T04:28:35;9.02;;;6.78;;
65172;SDS011;69059;52.218;5.172;2023-07-09T04:31:03;9.05;;;6.60;;
65172;SDS011;69059;52.218;5.172;2023-07-09T04:33:31;8.38;;;6.40;;
65172;SDS011;69059;52.218;5.172;2023-07-09T04:36:02;11.48;;;6.80;;
65172;SDS011;69059;52.218;5.172;2023-07-09T04:38:33;13.00;;;7.13;;
65172;SDS011;69059;52.218;5.172;2023-07-09T04:41:01;10.25;;;6.80;;
65172;SDS011;69059;52.218;5.172;2023-07-09T04:43:30;9.05;;;7.03;;
65172;SDS011;69059;52.218;5.172;2023-07-09T04:45:58;10.25;;;6.97;;
65172;SDS011;69059;52.218;5.172;2023-07-09T04:48:26;11.25;;;7.28;;
65172;SDS011;69059;52.218;5.172;2023-07-09T04:50:54;10.30;;;6.55;;
65172;SDS011;69059;52.218;5.172;2023-07-09T04:53:22;8.77;;;7.15;;
65172;SDS011;69059;52.218;5.172;2023-07-09T04:55:50;14.55;;;8.45;;
65172;SDS011;69059;52.218;5.172;2023-07-09T04:58:18;14.15;;;7.80;;
65172;SDS011;69059;52.218;5.172;2023-07-09T05:00:48;9.73;;;7.75;;
65172;SDS011;69059;52.218;5.172;2023-07-09T05:03:17;22.90;;;9.25;;
65172;SDS011;69059;52.218;5.172;2023-07-09T05:05:46;8.55;;;6.10;;
65172;SDS011;69059;52.218;5.172;2023-07-09T05:08:14;12.45;;;8.00;;
65172;SDS011;69059;52.218;5.172;2023-07-09T05:10:44;12.25;;;8.88;;
65172;SDS011;69059;52.218;5.172;2023-07-09T05:13:13;18.80;;;9.77;;
65172;SDS011;69059;52.218;5.172;2023-07-09T05:15:41;64.70;;;22.52;;
65172;SDS011;69059;52.218;5.172;2023-07-09T05:18:12;10.80;;;7.70;;
65172;SDS011;69059;52.218;5.172;2023-07-09T05:20:41;20.15;;;10.45;;
65172;SDS011;69059;52.218;5.172;2023-07-09T05:23:09;13.38;;;8.77;;
65172;SDS011;69059;52.218;5.172;2023-07-09T05:25:38;10.57;;;9.27;;
65172;SDS011;69059;52.218;5.172;2023-07-09T05:28:06;12.63;;;8.85;;
65172;SDS011;69059;52.218;5.172;2023-07-09T05:30:34;11.38;;;8.98;;
65172;SDS011;69059;52.218;5.172;2023-07-09T05:33:02;11.23;;;9.30;;
65172;SDS011;69059;52.218;5.172;2023-07-09T05:35:31;12.88;;;10.35;;
65172;SDS011;69059;52.218;5.172;2023-07-09T05:37:59;13.48;;;10.07;;
65172;SDS011;69059;52.218;5.172;2023-07-09T05:40:27;13.05;;;10.23;;
65172;SDS011;69059;52.218;5.172;2023-07-09T05:42:55;15.15;;;9.73;;
65172;SDS011;69059;52.218;5.172;2023-07-09T05:45:23;13.65;;;9.70;;
65172;SDS011;69059;52.218;5.172;2023-07-09T05:47:51;16.50;;;10.85;;
65172;SDS011;69059;52.218;5.172;2023-07-09T05:50:19;14.13;;;10.32;;
65172;SDS011;69059;52.218;5.172;2023-07-09T05:52:48;16.65;;;10.73;;
65172;SDS011;69059;52.218;5.172;2023-07-09T05:55:16;12.10;;;9.98;;
65172;SDS011;69059;52.218;5.172;2023-07-09T05:57:44;13.57;;;9.70;;
65172;SDS011;69059;52.218;5.172;2023-07-09T06:00:13;14.68;;;10.25;;
65172;SDS011;69059;52.218;5.172;2023-07-09T06:02:41;13.30;;;9.68;;
65172;SDS011;69059;52.218;5.172;2023-07-09T06:05:09;14.77;;;9.35;;
65172;SDS011;69059;52.218;5.172;2023-07-09T06:07:38;15.38;;;10.10;;
65172;SDS011;69059;52.218;5.172;2023-07-09T06:12:37;14.95;;;9.23;;
65172;SDS011;69059;52.218;5.172;2023-07-09T06:15:05;12.07;;;8.25;;
65172;SDS011;69059;52.218;5.172;2023-07-09T06:17:34;15.25;;;8.88;;
65172;SDS011;69059;52.218;5.172;2023-07-09T06:20:02;10.85;;;8.13;;
65172;SDS011;69059;52.218;5.172;2023-07-09T06:22:31;12.52;;;8.65;;
65172;SDS011;69059;52.218;5.172;2023-07-09T06:24:58;11.68;;;8.38;;
65172;SDS011;69059;52.218;5.172;2023-07-09T06:27:28;10.85;;;7.68;;
65172;SDS011;69059;52.218;5.172;2023-07-09T06:29:56;10.68;;;7.70;;
65172;SDS011;69059;52.218;5.172;2023-07-09T06:32:24;11.10;;;7.78;;
65172;SDS011;69059;52.218;5.172;2023-07-09T06:34:52;11.57;;;7.55;;
65172;SDS011;69059;52.218;5.172;2023-07-09T06:37:20;14.93;;;7.63;;
65172;SDS011;69059;52.218;5.172;2023-07-09T06:39:48;12.68;;;7.35;;
65172;SDS011;69059;52.218;5.172;2023-07-09T06:42:16;12.55;;;7.90;;
65172;SDS011;69059;52.218;5.172;2023-07-09T06:44:45;8.13;;;6.60;;
65172;SDS011;69059;52.218;5.172;2023-07-09T06:47:13;9.20;;;7.35;;
65172;SDS011;69059;52.218;5.172;2023-07-09T06:52:09;13.02;;;6.78;;
65172;SDS011;69059;52.218;5.172;2023-07-09T06:57:05;8.38;;;6.32;;
65172;SDS011;69059;52.218;5.172;2023-07-09T06:59:33;9.75;;;6.18;;
65172;SDS011;69059;52.218;5.172;2023-07-09T07:02:02;9.05;;;5.90;;
65172;SDS011;69059;52.218;5.172;2023-07-09T07:04:30;9.23;;;6.25;;
65172;SDS011;69059;52.218;5.172;2023-07-09T07:06:58;11.07;;;6.13;;
65172;SDS011;69059;52.218;5.172;2023-07-09T07:09:26;10.68;;;6.65;;
65172;SDS011;69059;52.218;5.172;2023-07-09T07:11:54;9.52;;;6.15;;
65172;SDS011;69059;52.218;5.172;2023-07-09T07:16:50;10.38;;;7.25;;
65172;SDS011;69059;52.218;5.172;2023-07-09T07:19:19;13.48;;;8.93;;
65172;SDS011;69059;52.218;5.172;2023-07-09T07:21:47;14.38;;;8.50;;
65172;SDS011;69059;52.218;5.172;2023-07-09T07:24:15;12.52;;;9.20;;
65172;SDS011;69059;52.218;5.172;2023-07-09T07:29:11;12.32;;;8.68;;
65172;SDS011;69059;52.218;5.172;2023-07-09T07:31:39;11.25;;;8.73;;
65172;SDS011;69059;52.218;5.172;2023-07-09T07:36:36;13.68;;;9.63;;
65172;SDS011;69059;52.218;5.172;2023-07-09T07:39:08;14.65;;;9.65;;
65172;SDS011;69059;52.218;5.172;2023-07-09T07:41:36;12.82;;;9.60;;
65172;SDS011;69059;52.218;5.172;2023-07-09T07:49:00;11.85;;;7.97;;
65172;SDS011;69059;52.218;5.172;2023-07-09T07:56:25;12.80;;;8.20;;
65172;SDS011;69059;52.218;5.172;2023-07-09T07:58:53;18.27;;;8.48;;
65172;SDS011;69059;52.218;5.172;2023-07-09T08:06:16;11.80;;;9.20;;
65172;SDS011;69059;52.218;5.172;2023-07-09T08:11:13;12.65;;;9.00;;
65172;SDS011;69059;52.218;5.172;2023-07-09T08:13:42;11.32;;;8.30;;
65172;SDS011;69059;52.218;5.172;2023-07-09T08:16:10;11.88;;;9.48;;
65172;SDS011;69059;52.218;5.172;2023-07-09T08:18:40;11.52;;;9.00;;
65172;SDS011;69059;52.218;5.172;2023-07-09T08:21:09;14.10;;;9.13;;
65172;SDS011;69059;52.218;5.172;2023-07-09T08:26:05;19.17;;;10.75;;
65172;SDS011;69059;52.218;5.172;2023-07-09T08:28:35;15.23;;;11.30;;
65172;SDS011;69059;52.218;5.172;2023-07-09T08:31:02;15.27;;;12.25;;
65172;SDS011;69059;52.218;5.172;2023-07-09T08:33:31;18.23;;;13.18;;
65172;SDS011;69059;52.218;5.172;2023-07-09T08:36:00;15.88;;;11.48;;
65172;SDS011;69059;52.218;5.172;2023-07-09T08:38:28;14.80;;;11.68;;
65172;SDS011;69059;52.218;5.172;2023-07-09T08:40:57;16.30;;;11.23;;
65172;SDS011;69059;52.218;5.172;2023-07-09T08:43:35;14.32;;;11.20;;
65172;SDS011;69059;52.218;5.172;2023-07-09T08:46:15;15.65;;;11.40;;
65172;SDS011;69059;52.218;5.172;2023-07-09T08:48:47;13.18;;;9.85;;
65172;SDS011;69059;52.218;5.172;2023-07-09T08:51:19;15.27;;;9.68;;
65172;SDS011;69059;52.218;5.172;2023-07-09T08:53:53;12.02;;;10.15;;
65172;SDS011;69059;52.218;5.172;2023-07-09T08:56:25;12.35;;;9.73;;
65172;SDS011;69059;52.218;5.172;2023-07-09T08:58:55;11.20;;;9.48;;
65172;SDS011;69059;52.218;5.172;2023-07-09T09:01:27;10.27;;;9.00;;
65172;SDS011;69059;52.218;5.172;2023-07-09T09:04:00;11.68;;;9.32;;
65172;SDS011;69059;52.218;5.172;2023-07-09T09:06:33;12.20;;;9.50;;
65172;SDS011;69059;52.218;5.172;2023-07-09T09:09:05;13.63;;;9.93;;
65172;SDS011;69059;52.218;5.172;2023-07-09T09:11:43;11.60;;;8.98;;
65172;SDS011;69059;52.218;5.172;2023-07-09T09:14:19;13.85;;;9.43;;
65172;SDS011;69059;52.218;5.172;2023-07-09T09:16:54;11.77;;;9.73;;
65172;SDS011;69059;52.218;5.172;2023-07-09T09:19:25;10.77;;;9.68;;
65172;SDS011;69059;52.218;5.172;2023-07-09T09:21:57;10.07;;;7.88;;
65172;SDS011;69059;52.218;5.172;2023-07-09T09:24:31;17.13;;;9.45;;
65172;SDS011;69059;52.218;5.172;2023-07-09T09:27:04;10.77;;;8.18;;
65172;SDS011;69059;52.218;5.172;2023-07-09T09:29:33;13.18;;;8.27;;
65172;SDS011;69059;52.218;5.172;2023-07-09T09:32:02;12.27;;;9.75;;
65172;SDS011;69059;52.218;5.172;2023-07-09T09:34:45;11.30;;;7.85;;
65172;SDS011;69059;52.218;5.172;2023-07-09T09:37:15;10.57;;;7.90;;
65172;SDS011;69059;52.218;5.172;2023-07-09T09:39:53;10.45;;;7.63;;
65172;SDS011;69059;52.218;5.172;2023-07-09T09:42:41;11.15;;;9.57;;
65172;SDS011;69059;52.218;5.172;2023-07-09T09:45:12;11.95;;;8.07;;
65172;SDS011;69059;52.218;5.172;2023-07-09T09:47:43;12.20;;;9.15;;
65172;SDS011;69059;52.218;5.172;2023-07-09T09:50:13;11.30;;;7.82;;
65172;SDS011;69059;52.218;5.172;2023-07-09T09:52:42;11.88;;;7.68;;
65172;SDS011;69059;52.218;5.172;2023-07-09T09:55:13;11.32;;;8.30;;
65172;SDS011;69059;52.218;5.172;2023-07-09T09:57:48;9.85;;;7.15;;
65172;SDS011;69059;52.218;5.172;2023-07-09T10:00:19;11.10;;;8.30;;
65172;SDS011;69059;52.218;5.172;2023-07-09T10:02:56;8.57;;;7.05;;
65172;SDS011;69059;52.218;5.172;2023-07-09T10:05:28;8.75;;;7.20;;
65172;SDS011;69059;52.218;5.172;2023-07-09T10:08:00;10.68;;;7.22;;
65172;SDS011;69059;52.218;5.172;2023-07-09T10:10:33;12.73;;;8.40;;
65172;SDS011;69059;52.218;5.172;2023-07-09T10:13:03;9.77;;;6.88;;
65172;SDS011;69059;52.218;5.172;2023-07-09T10:15:40;9.60;;;7.10;;
65172;SDS011;69059;52.218;5.172;2023-07-09T10:18:14;16.60;;;7.78;;
65172;SDS011;69059;52.218;5.172;2023-07-09T10:20:59;14.23;;;7.20;;
65172;SDS011;69059;52.218;5.172;2023-07-09T10:23:35;9.20;;;6.78;;
65172;SDS011;69059;52.218;5.172;2023-07-09T10:26:09;10.00;;;7.68;;
65172;SDS011;69059;52.218;5.172;2023-07-09T10:31:49;16.73;;;7.22;;
65172;SDS011;69059;52.218;5.172;2023-07-09T10:34:24;19.17;;;8.23;;
65172;SDS011;69059;52.218;5.172;2023-07-09T10:37:14;9.95;;;7.40;;
65172;SDS011;69059;52.218;5.172;2023-07-09T10:39:52;11.15;;;7.13;;
65172;SDS011;69059;52.218;5.172;2023-07-09T10:42:25;12.60;;;7.28;;
65172;SDS011;69059;52.218;5.172;2023-07-09T10:44:57;10.93;;;7.85;;
65172;SDS011;69059;52.218;5.172;2023-07-09T10:47:32;10.73;;;6.68;;
65172;SDS011;69059;52.218;5.172;2023-07-09T10:50:03;14.18;;;7.68;;
65172;SDS011;69059;52.218;5.172;2023-07-09T10:52:37;9.23;;;7.28;;
65172;SDS011;69059;52.218;5.172;2023-07-09T10:55:14;11.35;;;7.85;;
65172;SDS011;69059;52.218;5.172;2023-07-09T10:57:47;10.70;;;6.88;;
65172;SDS011;69059;52.218;5.172;2023-07-09T11:00:20;7.18;;;5.38;;
65172;SDS011;69059;52.218;5.172;2023-07-09T11:02:53;8.98;;;5.20;;
65172;SDS011;69059;52.218;5.172;2023-07-09T11:05:27;7.60;;;5.70;;
65172;SDS011;69059;52.218;5.172;2023-07-09T11:07:57;7.38;;;5.07;;
65172;SDS011;69059;52.218;5.172;2023-07-09T11:10:30;10.85;;;4.80;;
65172;SDS011;69059;52.218;5.172;2023-07-09T11:13:02;6.38;;;4.50;;
65172;SDS011;69059;52.218;5.172;2023-07-09T11:15:35;8.07;;;4.32;;
65172;SDS011;69059;52.218;5.172;2023-07-09T11:18:07;6.20;;;4.05;;
65172;SDS011;69059;52.218;5.172;2023-07-09T11:20:42;8.75;;;4.10;;
65172;SDS011;69059;52.218;5.172;2023-07-09T11:23:17;6.40;;;4.07;;
65172;SDS011;69059;52.218;5.172;2023-07-09T11:25:48;5.68;;;3.95;;
65172;SDS011;69059;52.218;5.172;2023-07-09T11:28:32;5.63;;;3.70;;
65172;SDS011;69059;52.218;5.172;2023-07-09T11:31:05;4.88;;;3.85;;
65172;SDS011;69059;52.218;5.172;2023-07-09T11:33:43;7.03;;;4.35;;
65172;SDS011;69059;52.218;5.172;2023-07-09T11:36:14;7.43;;;3.88;;
65172;SDS011;69059;52.218;5.172;2023-07-09T11:38:52;6.80;;;4.30;;
65172;SDS011;69059;52.218;5.172;2023-07-09T11:44:12;8.80;;;4.88;;
65172;SDS011;69059;52.218;5.172;2023-07-09T11:46:54;7.00;;;4.88;;
65172;SDS011;69059;52.218;5.172;2023-07-09T11:49:35;10.27;;;4.93;;
65172;SDS011;69059;52.218;5.172;2023-07-09T11:52:10;9.20;;;5.13;;
65172;SDS011;69059;52.218;5.172;2023-07-09T11:54:39;6.10;;;4.50;;
65172;SDS011;69059;52.218;5.172;2023-07-09T11:57:10;5.72;;;4.65;;
65172;SDS011;69059;52.218;5.172;2023-07-09T11:59:41;6.60;;;4.65;;
65172;SDS011;69059;52.218;5.172;2023-07-09T12:02:13;7.50;;;4.53;;
65172;SDS011;69059;52.218;5.172;2023-07-09T12:04:48;5.40;;;4.00;;
65172;SDS011;69059;52.218;5.172;2023-07-09T12:07:17;5.57;;;4.10;;
65172;SDS011;69059;52.218;5.172;2023-07-09T12:09:50;6.38;;;3.70;;
65172;SDS011;69059;52.218;5.172;2023-07-09T12:12:20;6.85;;;4.07;;
65172;SDS011;69059;52.218;5.172;2023-07-09T12:14:50;6.28;;;3.75;;
65172;SDS011;69059;52.218;5.172;2023-07-09T12:17:18;6.57;;;3.72;;
65172;SDS011;69059;52.218;5.172;2023-07-09T12:19:52;5.53;;;3.47;;
65172;SDS011;69059;52.218;5.172;2023-07-09T12:22:20;6.50;;;3.85;;
65172;SDS011;69059;52.218;5.172;2023-07-09T12:24:49;4.90;;;3.67;;
65172;SDS011;69059;52.218;5.172;2023-07-09T12:27:21;9.63;;;4.25;;
65172;SDS011;69059;52.218;5.172;2023-07-09T12:29:53;6.65;;;3.67;;
65172;SDS011;69059;52.218;5.172;2023-07-09T12:32:22;5.20;;;4.05;;
65172;SDS011;69059;52.218;5.172;2023-07-09T12:34:56;6.40;;;3.67;;
65172;SDS011;69059;52.218;5.172;2023-07-09T12:37:24;5.43;;;3.50;;
65172;SDS011;69059;52.218;5.172;2023-07-09T12:39:54;6.72;;;3.40;;
65172;SDS011;69059;52.218;5.172;2023-07-09T12:42:24;4.35;;;3.60;;
65172;SDS011;69059;52.218;5.172;2023-07-09T12:44:57;8.07;;;3.67;;
65172;SDS011;69059;52.218;5.172;2023-07-09T12:47:25;6.03;;;3.80;;
65172;SDS011;69059;52.218;5.172;2023-07-09T12:50:01;4.22;;;3.58;;
65172;SDS011;69059;52.218;5.172;2023-07-09T12:52:30;4.65;;;3.28;;
65172;SDS011;69059;52.218;5.172;2023-07-09T12:55:00;5.13;;;3.50;;
65172;SDS011;69059;52.218;5.172;2023-07-09T12:57:29;6.35;;;3.50;;
65172;SDS011;69059;52.218;5.172;2023-07-09T12:59:58;4.40;;;3.40;;
65172;SDS011;69059;52.218;5.172;2023-07-09T13:02:26;9.77;;;3.72;;
65172;SDS011;69059;52.218;5.172;2023-07-09T13:05:01;7.15;;;3.78;;
65172;SDS011;69059;52.218;5.172;2023-07-09T13:07:31;7.63;;;3.88;;
65172;SDS011;69059;52.218;5.172;2023-07-09T13:10:06;5.55;;;3.60;;
65172;SDS011;69059;52.218;5.172;2023-07-09T13:12:44;4.93;;;3.35;;
65172;SDS011;69059;52.218;5.172;2023-07-09T13:15:24;4.57;;;3.40;;
65172;SDS011;69059;52.218;5.172;2023-07-09T13:17:57;7.32;;;3.40;;
65172;SDS011;69059;52.218;5.172;2023-07-09T13:20:28;6.22;;;3.63;;
65172;SDS011;69059;52.218;5.172;2023-07-09T13:22:57;6.28;;;3.88;;
65172;SDS011;69059;52.218;5.172;2023-07-09T13:25:25;6.65;;;3.47;;
65172;SDS011;69059;52.218;5.172;2023-07-09T13:28:14;4.93;;;3.47;;
65172;SDS011;69059;52.218;5.172;2023-07-09T13:30:44;5.50;;;3.28;;
65172;SDS011;69059;52.218;5.172;2023-07-09T13:33:13;5.53;;;3.30;;
65172;SDS011;69059;52.218;5.172;2023-07-09T13:35:42;5.20;;;3.35;;
65172;SDS011;69059;52.218;5.172;2023-07-09T13:38:14;6.65;;;2.90;;
65172;SDS011;69059;52.218;5.172;2023-07-09T13:40:42;10.95;;;3.10;;
65172;SDS011;69059;52.218;5.172;2023-07-09T13:43:12;7.20;;;3.00;;
65172;SDS011;69059;52.218;5.172;2023-07-09T13:45:41;6.47;;;3.17;;
65172;SDS011;69059;52.218;5.172;2023-07-09T13:48:13;7.22;;;2.78;;
65172;SDS011;69059;52.218;5.172;2023-07-09T13:50:44;6.05;;;2.67;;
65172;SDS011;69059;52.218;5.172;2023-07-09T13:53:13;6.35;;;2.90;;
65172;SDS011;69059;52.218;5.172;2023-07-09T13:55:43;6.65;;;2.88;;
65172;SDS011;69059;52.218;5.172;2023-07-09T13:58:11;8.18;;;3.00;;
65172;SDS011;69059;52.218;5.172;2023-07-09T14:00:41;4.32;;;2.80;;
65172;SDS011;69059;52.218;5.172;2023-07-09T14:03:14;4.75;;;2.55;;
65172;SDS011;69059;52.218;5.172;2023-07-09T14:05:47;6.35;;;2.80;;
65172;SDS011;69059;52.218;5.172;2023-07-09T14:08:15;5.80;;;3.20;;
65172;SDS011;69059;52.218;5.172;2023-07-09T14:10:43;5.40;;;2.67;;
65172;SDS011;69059;52.218;5.172;2023-07-09T14:13:12;9.13;;;3.00;;
65172;SDS011;69059;52.218;5.172;2023-07-09T14:15:41;6.32;;;3.17;;
65172;SDS011;69059;52.218;5.172;2023-07-09T14:18:11;6.10;;;3.00;;
65172;SDS011;69059;52.218;5.172;2023-07-09T14:20:41;6.95;;;3.22;;
65172;SDS011;69059;52.218;5.172;2023-07-09T14:23:11;8.93;;;3.63;;
65172;SDS011;69059;52.218;5.172;2023-07-09T14:25:40;7.60;;;3.58;;
65172;SDS011;69059;52.218;5.172;2023-07-09T14:28:09;11.25;;;3.95;;
65172;SDS011;69059;52.218;5.172;2023-07-09T14:30:39;7.72;;;3.45;;
65172;SDS011;69059;52.218;5.172;2023-07-09T14:33:08;8.93;;;4.00;;
65172;SDS011;69059;52.218;5.172;2023-07-09T14:35:40;8.00;;;3.58;;
65172;SDS011;69059;52.218;5.172;2023-07-09T14:38:14;10.70;;;3.67;;
65172;SDS011;69059;52.218;5.172;2023-07-09T14:40:44;8.05;;;3.70;;
65172;SDS011;69059;52.218;5.172;2023-07-09T14:43:13;8.10;;;3.80;;
65172;SDS011;69059;52.218;5.172;2023-07-09T14:45:41;10.38;;;4.00;;
65172;SDS011;69059;52.218;5.172;2023-07-09T14:48:09;10.48;;;4.50;;
65172;SDS011;69059;52.218;5.172;2023-07-09T14:50:38;9.65;;;4.80;;
65172;SDS011;69059;52.218;5.172;2023-07-09T14:53:15;16.15;;;5.80;;
65172;SDS011;69059;52.218;5.172;2023-07-09T14:55:48;11.55;;;5.30;;
65172;SDS011;69059;52.218;5.172;2023-07-09T14:58:17;11.77;;;5.25;;
65172;SDS011;69059;52.218;5.172;2023-07-09T15:00:46;29.25;;;10.10;;
65172;SDS011;69059;52.218;5.172;2023-07-09T15:03:17;25.80;;;10.35;;
65172;SDS011;69059;52.218;5.172;2023-07-09T15:05:47;23.00;;;10.82;;
65172;SDS011;69059;52.218;5.172;2023-07-09T15:08:18;16.38;;;8.88;;
65172;SDS011;69059;52.218;5.172;2023-07-09T15:10:48;18.85;;;10.73;;
65172;SDS011;69059;52.218;5.172;2023-07-09T15:13:17;19.75;;;11.43;;
65172;SDS011;69059;52.218;5.172;2023-07-09T15:15:47;11.27;;;7.78;;
65172;SDS011;69059;52.218;5.172;2023-07-09T15:18:15;14.63;;;8.70;;
65172;SDS011;69059;52.218;5.172;2023-07-09T15:20:47;12.27;;;7.05;;
65172;SDS011;69059;52.218;5.172;2023-07-09T15:23:18;8.98;;;6.22;;
65172;SDS011;69059;52.218;5.172;2023-07-09T15:25:49;11.48;;;6.43;;
65172;SDS011;69059;52.218;5.172;2023-07-09T15:28:17;9.60;;;5.88;;
65172;SDS011;69059;52.218;5.172;2023-07-09T15:30:46;9.75;;;5.72;;
65172;SDS011;69059;52.218;5.172;2023-07-09T15:33:14;11.18;;;6.20;;
65172;SDS011;69059;52.218;5.172;2023-07-09T15:35:44;9.13;;;5.47;;
65172;SDS011;69059;52.218;5.172;2023-07-09T15:41:09;7.97;;;5.63;;
65172;SDS011;69059;52.218;5.172;2023-07-09T15:43:40;9.75;;;5.57;;
65172;SDS011;69059;52.218;5.172;2023-07-09T15:46:09;7.50;;;4.95;;
65172;SDS011;69059;52.218;5.172;2023-07-09T15:48:44;7.18;;;4.65;;
65172;SDS011;69059;52.218;5.172;2023-07-09T15:51:13;9.45;;;5.15;;
65172;SDS011;69059;52.218;5.172;2023-07-09T15:53:42;7.82;;;5.13;;